Time;durP1;ratioP1;P1;durP2;ratioP2;P2;SDS_P1;SDS_P2;PMS_P1;PMS_P2;Temp;Humidity;BMP_temperature;BMP_pressure;BME280_temperature;BME280_humidity;BME280_pressure;Samples;Min_cycle;Max_cycle;Signal;HPM_P1;HPM_P2
2022/02/20 00:01:11;;;;;;;1999.90;999.90;;;;;;;2.94;64.77;163182.03;5016980;28;20073;-68
2022/02/20 00:03:38;;;;;;;1999.90;999.90;;;;;;;3.00;64.33;163198.47;5015071;28;20454;-68
2022/02/20 00:06:05;;;;;;;1999.90;999.90;;;;;;;3.01;64.03;163199.88;5012845;28;20057;-69
2022/02/20 00:08:31;;;;;;;1999.90;999.90;;;;;;;3.03;63.66;163205.31;5014084;28;20693;-68
2022/02/20 00:10:59;;;;;;;1999.90;999.90;;;;;;;3.01;63.95;163199.88;5014669;28;20119;-69
2022/02/20 00:13:25;;;;;;;1999.90;999.90;;;;;;;2.94;64.20;163180.66;5013006;28;20400;-68
2022/02/20 00:15:52;;;;;;;1999.90;999.90;;;;;;;3.31;63.37;163280.69;5014378;28;20045;-69
2022/02/20 00:18:19;;;;;;;1999.90;999.90;;;;;;;3.05;64.05;163210.84;5008185;28;20045;-68
2022/02/20 00:20:46;;;;;;;1999.90;999.90;;;;;;;3.26;62.96;163265.59;5009986;28;20451;-69
2022/02/20 00:23:15;;;;;;;1999.90;999.90;;;;;;;2.92;64.29;163175.22;5020127;28;20049;-68
2022/02/20 00:25:43;;;;;;;1999.90;999.90;;;;;;;2.91;64.10;163172.47;5016755;28;20068;-69
2022/02/20 00:28:10;;;;;;;1999.90;999.90;;;;;;;2.85;64.40;163157.38;5018546;28;20103;-68
2022/02/20 00:30:37;;;;;;;1999.90;999.90;;;;;;;3.28;63.58;163271.13;5010838;28;20054;-68
2022/02/20 00:33:03;;;;;;;1999.90;999.90;;;;;;;3.56;61.51;163345.09;5058017;28;20053;-69
2022/02/20 00:35:34;;;;;;;1999.90;999.90;;;;;;;3.53;61.29;163339.63;5008760;28;20077;-69
2022/02/20 00:38:04;;;;;;;1999.90;999.90;;;;;;;3.53;61.60;163339.63;5009325;28;20068;-68
2022/02/20 00:40:31;;;;;;;1999.90;999.90;;;;;;;4.17;59.90;163509.63;5010605;28;20057;-68
2022/02/20 00:42:58;;;;;;;1999.90;999.90;;;;;;;4.47;58.44;163589.19;5017300;28;20045;-68
2022/02/20 00:45:25;;;;;;;1999.90;999.90;;;;;;;4.66;58.10;163638.53;5015953;28;20050;-68
2022/02/20 00:47:52;;;;;;;1999.90;999.90;;;;;;;4.85;57.77;163689.31;5014343;28;20099;-69
2022/02/20 00:50:19;;;;;;;1999.90;999.90;;;;;;;4.80;57.65;163676.97;5045175;28;20505;-68
2022/02/20 00:52:46;;;;;;;1999.90;999.90;;;;;;;5.01;57.05;163731.84;5020140;28;20057;-68
2022/02/20 00:55:12;;;;;;;1999.90;999.90;;;;;;;4.97;57.28;163722.22;5017956;28;20418;-68
2022/02/20 00:57:39;;;;;;;1999.90;999.90;;;;;;;4.98;57.64;163723.63;5047963;28;20104;-69
2022/02/20 01:00:09;;;;;;;1999.90;999.90;;;;;;;4.91;57.36;163707.16;5014204;28;20050;-69
2022/02/20 01:02:36;;;;;;;1999.90;999.90;;;;;;;4.94;57.43;163715.38;5014103;28;20105;-69
2022/02/20 01:05:03;;;;;;;1999.90;999.90;;;;;;;4.48;57.88;163591.94;5015423;28;20509;-68
2022/02/20 01:07:30;;;;;;;1999.90;999.90;;;;;;;4.84;57.56;163686.53;5046750;28;20038;-68
2022/02/20 01:09:57;;;;;;;1999.90;999.90;;;;;;;4.67;58.27;163642.66;5016074;28;20049;-68
2022/02/20 01:12:23;;;;;;;1999.90;999.90;;;;;;;4.74;57.93;163660.50;5015942;28;20046;-69
2022/02/20 01:14:50;;;;;;;1999.90;999.90;;;;;;;4.21;59.32;163519.22;5016795;28;20426;-68
2022/02/20 01:17:17;;;;;;;1999.90;999.90;;;;;;;4.10;60.17;163489.06;5047757;28;20405;-68
2022/02/20 01:19:43;;;;;;;1999.90;999.90;;;;;;;3.94;60.80;163446.56;5023681;28;20068;-68
2022/02/20 01:22:10;;;;;;;1999.90;999.90;;;;;;;4.12;60.25;163494.53;5021787;28;20489;-68
2022/02/20 01:24:37;;;;;;;1999.90;999.90;;;;;;;4.15;59.99;163502.75;5021832;28;20108;-68
2022/02/20 01:27:04;;;;;;;1999.90;999.90;;;;;;;4.28;59.46;163537.06;5027533;28;20097;-68
2022/02/20 01:29:31;;;;;;;1999.90;999.90;;;;;;;4.22;59.52;163523.31;5021195;28;20103;-68
2022/02/20 01:31:57;;;;;;;1999.90;999.90;;;;;;;4.33;59.68;163550.75;5017458;28;20313;-67
2022/02/20 01:34:24;;;;;;;1999.90;999.90;;;;;;;4.01;60.30;163467.13;5016798;28;20057;-68
2022/02/20 01:36:51;;;;;;;1999.90;999.90;;;;;;;3.99;60.46;163460.25;5015377;28;20049;-69
2022/02/20 01:39:17;;;;;;;1999.90;999.90;;;;;;;4.35;59.43;163557.63;5012249;28;20054;-70
2022/02/20 01:41:44;;;;;;;1999.90;999.90;;;;;;;4.38;59.10;163564.50;5023858;28;20077;-68
2022/02/20 01:44:10;;;;;;;1999.90;999.90;;;;;;;4.15;59.70;163502.75;5018913;28;20049;-69
2022/02/20 01:46:37;;;;;;;1999.90;999.90;;;;;;;3.89;60.81;163434.22;5016947;28;20432;-68
2022/02/20 01:49:04;;;;;;;1999.90;999.90;;;;;;;3.73;61.01;163390.34;5024226;28;20434;-68
2022/02/20 01:51:30;;;;;;;1999.90;999.90;;;;;;;3.22;62.84;163254.69;5018577;28;20046;-68
2022/02/20 01:53:57;;;;;;;1999.90;999.90;;;;;;;2.93;63.89;163179.31;5015000;28;20046;-68
2022/02/20 01:56:23;;;;;;;1999.90;999.90;;;;;;;3.07;63.24;163216.28;5023601;28;20370;-68
2022/02/20 01:58:50;;;;;;;1999.90;999.90;;;;;;;3.05;63.57;163209.44;5014156;28;20115;-69
2022/02/20 02:01:17;;;;;;;1999.90;999.90;;;;;;;2.75;63.89;163131.31;5024058;28;20053;-68
2022/02/20 02:03:43;;;;;;;1999.90;999.90;;;;;;;2.61;64.80;163093.00;5020362;28;20095;-69
2022/02/20 02:06:09;;;;;;;1999.90;999.90;;;;;;;2.45;64.80;163050.53;5025179;28;20071;-68
2022/02/20 02:08:36;;;;;;;1999.90;999.90;;;;;;;2.76;63.94;163134.09;5023084;28;20395;-68
2022/02/20 02:11:04;;;;;;;1999.90;999.90;;;;;;;2.57;64.55;163083.38;5028698;28;20041;-69
2022/02/20 02:13:31;;;;;;;1999.90;999.90;;;;;;;2.63;63.98;163098.47;5021628;28;20041;-68
2022/02/20 02:15:57;;;;;;;1999.90;999.90;;;;;;;2.96;63.16;163186.13;5016762;28;20053;-67
2022/02/20 02:18:24;;;;;;;1999.90;999.90;;;;;;;2.93;62.78;163177.91;5043418;28;20054;-68
2022/02/20 02:20:50;;;;;;;1999.90;999.90;;;;;;;2.96;62.96;163186.13;5020188;28;20054;-68
2022/02/20 02:23:18;;;;;;;1999.90;999.90;;;;;;;2.96;63.27;163187.53;5015520;28;20046;-68
2022/02/20 02:25:49;;;;;;;1999.90;999.90;;;;;;;3.02;62.96;163202.56;5024832;28;20057;-68
2022/02/20 02:28:16;;;;;;;1999.90;999.90;;;;;;;3.05;62.82;163210.84;5053622;28;20053;-68
2022/02/20 02:30:45;;;;;;;1999.90;999.90;;;;;;;3.21;62.69;163251.91;5011979;28;20394;-68
2022/02/20 02:33:11;;;;;;;1999.90;999.90;;;;;;;3.21;62.39;163251.91;5047223;28;20099;-68
2022/02/20 02:35:38;;;;;;;1999.90;999.90;;;;;;;3.24;62.11;163260.16;5020959;28;20053;-68
2022/02/20 02:38:07;;;;;;;1999.90;999.90;;;;;;;3.17;62.50;163243.72;5016589;28;20089;-68
2022/02/20 02:40:33;;;;;;;1999.90;999.90;;;;;;;3.01;62.55;163199.88;5015188;28;20334;-68
2022/02/20 02:43:00;;;;;;;1999.90;999.90;;;;;;;3.11;62.77;163227.28;5023075;28;20049;-69
2022/02/20 02:45:27;;;;;;;1999.90;999.90;;;;;;;3.31;62.53;163279.34;5013424;28;20049;-68
2022/02/20 02:47:54;;;;;;;1999.90;999.90;;;;;;;3.39;62.41;163301.25;5016037;28;20106;-68
2022/02/20 02:50:24;;;;;;;1999.90;999.90;;;;;;;3.25;62.51;163262.91;5014813;28;20523;-69
2022/02/20 02:52:51;;;;;;;1999.90;999.90;;;;;;;3.15;62.67;163238.19;5021945;28;20054;-69
2022/02/20 02:55:18;;;;;;;1999.90;999.90;;;;;;;3.30;62.17;163276.56;5026059;28;20103;-69
2022/02/20 02:57:44;;;;;;;1999.90;999.90;;;;;;;3.35;62.53;163291.66;5023200;28;20431;-68
2022/02/20 03:00:11;;;;;;;1999.90;999.90;;;;;;;3.42;61.46;163308.09;5021661;28;20053;-68
2022/02/20 03:02:37;;;;;;;1999.90;999.90;;;;;;;3.30;61.60;163276.56;5019800;28;20045;-68
2022/02/20 03:05:04;;;;;;;1999.90;999.90;;;;;;;3.26;61.39;163265.59;5014826;28;20123;-69
2022/02/20 03:07:31;;;;;;;1999.90;999.90;;;;;;;3.38;61.30;163298.53;5019824;28;20045;-68
2022/02/20 03:09:57;;;;;;;1999.90;999.90;;;;;;;3.65;60.42;163369.81;5014817;28;20111;-68
2022/02/20 03:12:24;;;;;;;1999.90;999.90;;;;;;;3.46;60.76;163320.44;5046262;28;20107;-68
2022/02/20 03:14:50;;;;;;;1999.90;999.90;;;;;;;3.73;60.63;163391.72;5009913;28;20050;-68
2022/02/20 03:17:17;;;;;;;1999.90;999.90;;;;;;;4.04;59.77;163475.34;5010691;28;20062;-68
2022/02/20 03:19:43;;;;;;;1999.90;999.90;;;;;;;4.11;59.47;163491.78;5014288;28;20041;-68
2022/02/20 03:22:10;;;;;;;1999.90;999.90;;;;;;;4.12;59.16;163495.91;5016532;28;20104;-68
2022/02/20 03:24:36;;;;;;;1999.90;999.90;;;;;;;4.27;58.95;163534.31;5015305;28;20424;-68
2022/02/20 03:27:03;;;;;;;1999.90;999.90;;;;;;;4.13;59.03;163498.66;5020465;28;20084;-68
2022/02/20 03:29:30;;;;;;;1999.90;999.90;;;;;;;4.25;58.68;163528.84;5020545;28;20378;-68
2022/02/20 03:31:56;;;;;;;1999.90;999.90;;;;;;;4.10;59.41;163489.06;5018967;28;20227;-68
2022/02/20 03:34:23;;;;;;;1999.90;999.90;;;;;;;4.14;58.46;163500.00;5023694;28;20054;-68
2022/02/20 03:36:49;;;;;;;1999.90;999.90;;;;;;;4.14;58.58;163501.41;5045660;28;20065;-69
2022/02/20 03:39:18;;;;;;;1999.90;999.90;;;;;;;4.15;58.19;163504.13;5011122;28;20090;-68
2022/02/20 03:41:44;;;;;;;1999.90;999.90;;;;;;;3.75;59.54;163397.22;5021793;28;20389;-68
2022/02/20 03:44:11;;;;;;;1999.90;999.90;;;;;;;3.93;59.56;163443.81;5019057;28;20046;-68
2022/02/20 03:46:37;;;;;;;1999.90;999.90;;;;;;;4.03;59.68;163472.63;5014398;28;20268;-68
2022/02/20 03:49:04;;;;;;;1999.90;999.90;;;;;;;3.70;59.75;163384.84;5017038;28;20107;-67
2022/02/20 03:51:30;;;;;;;1999.90;999.90;;;;;;;3.59;61.14;163353.31;5044069;28;20280;-68
2022/02/20 03:53:58;;;;;;;1999.90;999.90;;;;;;;3.76;60.12;163399.94;5019308;28;20319;-68
2022/02/20 03:56:24;;;;;;;1999.90;999.90;;;;;;;3.93;59.86;163443.81;5016675;28;20150;-70
2022/02/20 03:58:51;;;;;;;1999.90;999.90;;;;;;;4.12;58.75;163495.91;5013123;28;20073;-69
2022/02/20 04:01:17;;;;;;;1999.90;999.90;;;;;;;4.31;58.92;163545.28;5015623;28;21478;-66
2022/02/20 04:03:44;;;;;;;1999.90;999.90;;;;;;;4.55;58.50;163611.09;5028403;28;20350;-66
2022/02/20 04:06:11;;;;;;;1999.90;999.90;;;;;;;4.65;58.23;163637.19;5016820;28;20045;-67
2022/02/20 04:08:37;;;;;;;1999.90;999.90;;;;;;;4.63;58.57;163630.31;5014330;28;20074;-66
2022/02/20 04:11:04;;;;;;;1999.90;999.90;;;;;;;4.43;59.17;163576.84;5020072;28;20076;-67
2022/02/20 04:13:30;;;;;;;1999.90;999.90;;;;;;;4.33;58.74;163550.75;5017963;28;20137;-67
2022/02/20 04:15:57;;;;;;;1999.90;999.90;;;;;;;4.16;59.57;163506.88;5022171;28;20073;-67
2022/02/20 04:18:23;;;;;;;1999.90;999.90;;;;;;;4.02;59.62;163469.88;5018319;28;20051;-67
2022/02/20 04:20:50;;;;;;;1999.90;999.90;;;;;;;3.91;59.99;163438.34;5022804;28;20111;-67
2022/02/20 04:23:16;;;;;;;1999.90;999.90;;;;;;;3.68;60.12;163378.03;5009239;28;20447;-67
2022/02/20 04:25:43;;;;;;;1999.90;999.90;;;;;;;3.76;60.13;163399.94;5012729;28;20092;-67
2022/02/20 04:28:09;;;;;;;1999.90;999.90;;;;;;;3.98;59.82;163458.91;5016811;28;20382;-67
2022/02/20 04:30:36;;;;;;;1999.90;999.90;;;;;;;4.00;58.95;163463.00;5018454;28;20123;-67
2022/02/20 04:33:02;;;;;;;1999.90;999.90;;;;;;;4.14;58.53;163501.41;5015504;28;20080;-67
2022/02/20 04:35:31;;;;;;;1999.90;999.90;;;;;;;3.90;59.25;163436.97;5008600;28;20085;-67
2022/02/20 04:37:58;;;;;;;1999.90;999.90;;;;;;;4.11;58.81;163491.78;5019509;28;20069;-67
2022/02/20 04:40:24;;;;;;;1999.90;999.90;;;;;;;4.28;57.94;163537.06;5010700;28;20053;-67
2022/02/20 04:42:51;;;;;;;1999.90;999.90;;;;;;;4.14;58.85;163500.00;5012956;28;20046;-68
2022/02/20 04:45:19;;;;;;;1999.90;999.90;;;;;;;4.47;57.81;163589.19;5012531;28;20064;-67
2022/02/20 04:47:45;;;;;;;1999.90;999.90;;;;;;;4.45;57.54;163582.31;5022703;28;20401;-67
2022/02/20 04:50:12;;;;;;;1999.90;999.90;;;;;;;4.35;58.34;163557.63;5020843;28;20085;-68
2022/02/20 04:52:38;;;;;;;1999.90;999.90;;;;;;;4.16;59.57;163506.88;5009511;28;20093;-67
2022/02/20 04:55:05;;;;;;;1999.90;999.90;;;;;;;4.28;59.06;163537.06;5010647;28;20081;-67
2022/02/20 04:57:33;;;;;;;1999.90;999.90;;;;;;;4.11;59.68;163493.19;5017317;28;20447;-67
2022/02/20 04:59:59;;;;;;;1999.90;999.90;;;;;;;3.86;61.04;163427.34;5022360;28;20466;-67
2022/02/20 05:02:26;;;;;;;1999.90;999.90;;;;;;;3.55;62.43;163342.38;5010228;28;20085;-67
2022/02/20 05:04:52;;;;;;;1999.90;999.90;;;;;;;3.40;62.34;163304.00;5009481;28;20384;-67
2022/02/20 05:07:19;;;;;;;1999.90;999.90;;;;;;;3.67;62.07;163375.28;5015965;28;20422;-67
2022/02/20 05:09:46;;;;;;;1999.90;999.90;;;;;;;3.75;62.00;163397.22;5017255;28;20053;-67
2022/02/20 05:12:12;;;;;;;1999.90;999.90;;;;;;;3.64;62.87;163368.41;5017237;28;20045;-67
2022/02/20 05:14:39;;;;;;;1999.90;999.90;;;;;;;4.01;62.00;163467.13;5013975;28;20501;-67
2022/02/20 05:17:05;;;;;;;1999.90;999.90;;;;;;;3.92;62.17;163441.09;5011760;28;20300;-67
2022/02/20 05:19:32;;;;;;;1999.90;999.90;;;;;;;3.65;63.62;163371.16;5021973;28;20387;-67
2022/02/20 05:21:58;;;;;;;1999.90;999.90;;;;;;;3.68;64.10;163378.03;5014646;28;20379;-67
2022/02/20 05:24:25;;;;;;;1999.90;999.90;;;;;;;3.50;65.13;163330.06;5016148;28;20585;-68
2022/02/20 05:26:51;;;;;;;1999.90;999.90;;;;;;;3.10;66.09;163223.16;5018420;28;20115;-67
2022/02/20 05:29:17;;;;;;;1999.90;999.90;;;;;;;3.09;66.86;163220.41;5014243;28;20114;-67
2022/02/20 05:31:44;;;;;;;1999.90;999.90;;;;;;;3.35;66.81;163290.31;5023345;28;20107;-67
2022/02/20 05:34:10;;;;;;;1999.90;999.90;;;;;;;3.06;67.82;163212.19;5024145;28;20138;-67
2022/02/20 05:36:40;;;;;;;1999.90;999.90;;;;;;;3.05;67.95;163210.84;5022655;28;20053;-67
2022/02/20 05:39:07;;;;;;;1999.90;999.90;;;;;;;2.85;69.17;163156.03;5014782;28;20119;-67
2022/02/20 05:41:33;;;;;;;1999.90;999.90;;;;;;;3.01;69.40;163199.88;5029020;28;20081;-67
2022/02/20 05:43:59;;;;;;;1999.90;999.90;;;;;;;3.00;69.83;163198.47;5023382;28;20126;-67
2022/02/20 05:46:26;;;;;;;1999.90;999.90;;;;;;;2.97;70.52;163190.25;5023679;28;20358;-67
2022/02/20 05:48:53;;;;;;;1999.90;999.90;;;;;;;2.99;70.64;163194.34;5022719;28;20077;-67
2022/02/20 05:51:19;;;;;;;1999.90;999.90;;;;;;;3.06;70.93;163212.19;5017264;28;20084;-67
2022/02/20 05:53:45;;;;;;;1999.90;999.90;;;;;;;3.03;71.64;163205.31;5016351;28;20131;-67
2022/02/20 05:56:12;;;;;;;1999.90;999.90;;;;;;;3.07;72.37;163214.94;5023047;28;20404;-67
2022/02/20 05:58:39;;;;;;;1999.90;999.90;;;;;;;3.22;72.21;163254.69;5015133;28;20076;-67
2022/02/20 06:01:05;;;;;;;1999.90;999.90;;;;;;;3.37;72.19;163295.78;5020340;28;20342;-67
2022/02/20 06:03:32;;;;;;;1999.90;999.90;;;;;;;3.34;73.58;163288.91;5018090;28;20046;-67
2022/02/20 06:05:58;;;;;;;1999.90;999.90;;;;;;;3.20;74.93;163250.56;5018173;28;20085;-67
2022/02/20 06:08:25;;;;;;;1999.90;999.90;;;;;;;3.46;74.85;163320.44;5015020;28;20078;-67
2022/02/20 06:10:51;;;;;;;1999.90;999.90;;;;;;;3.44;76.32;163313.56;5012029;28;20081;-67
2022/02/20 06:13:20;;;;;;;1999.90;999.90;;;;;;;2.99;80.36;163195.75;5011800;28;20038;-67
2022/02/20 06:15:47;;;;;;;1999.90;999.90;;;;;;;3.33;80.46;163284.78;5018213;28;20049;-67
2022/02/20 06:18:14;;;;;;;1999.90;999.90;;;;;;;3.45;80.93;163317.69;5017229;28;20049;-67
2022/02/20 06:20:41;;;;;;;1999.90;999.90;;;;;;;3.20;83.30;163249.16;5021563;28;20320;-67
2022/02/20 06:23:07;;;;;;;1999.90;999.90;;;;;;;3.72;82.15;163387.59;5017332;28;20092;-67
2022/02/20 06:25:34;;;;;;;1999.90;999.90;;;;;;;3.18;88.02;163246.41;5023476;28;20124;-67
2022/02/20 06:28:00;;;;;;;1999.90;999.90;;;;;;;2.93;91.53;163177.91;5022034;28;20486;-68
2022/02/20 06:30:27;;;;;;;1999.90;999.90;;;;;;;2.71;94.73;163120.41;5019601;28;20077;-68
2022/02/20 06:32:53;;;;;;;1999.90;999.90;;;;;;;2.64;96.20;163101.22;5020284;28;20123;-67
2022/02/20 06:35:20;;;;;;;1999.90;999.90;;;;;;;2.70;96.61;163117.66;5017438;28;20077;-67
2022/02/20 06:37:46;;;;;;;1999.90;999.90;;;;;;;2.34;98.45;163021.78;5018066;28;20092;-67
2022/02/20 06:40:13;;;;;;;1999.90;999.90;;;;;;;2.01;100.00;162934.16;5017192;28;20115;-67
2022/02/20 06:42:40;;;;;;;1999.90;999.90;;;;;;;2.17;100.00;162975.22;5026511;28;20080;-67
2022/02/20 06:45:07;;;;;;;1999.90;999.90;;;;;;;1.99;100.00;162927.28;5022710;28;20099;-67
2022/02/20 06:47:34;;;;;;;1999.90;999.90;;;;;;;2.16;100.00;162972.47;5024619;28;20054;-67
2022/02/20 06:50:00;;;;;;;1999.90;999.90;;;;;;;2.00;100.00;162931.41;5014075;28;20065;-67
2022/02/20 06:52:27;;;;;;;1999.90;999.90;;;;;;;2.05;100.00;162945.06;5013928;28;20108;-67
2022/02/20 06:54:53;;;;;;;1999.90;999.90;;;;;;;1.93;100.00;162912.22;5013381;28;20078;-67
2022/02/20 06:57:21;;;;;;;1999.90;999.90;;;;;;;2.20;100.00;162984.78;5016023;28;20141;-67
2022/02/20 06:59:47;;;;;;;1999.90;999.90;;;;;;;1.97;100.00;162923.19;5014822;28;20077;-67
2022/02/20 07:02:14;;;;;;;1999.90;999.90;;;;;;;1.99;100.00;162928.66;5015719;28;20436;-67
2022/02/20 07:04:40;;;;;;;1999.90;999.90;;;;;;;1.90;100.00;162904.00;5018883;28;20414;-67
2022/02/20 07:07:07;;;;;;;1999.90;999.90;;;;;;;2.02;100.00;162936.84;5022093;28;20508;-67
2022/02/20 07:09:33;;;;;;;1999.90;999.90;;;;;;;2.00;100.00;162931.41;5022449;28;20517;-67
2022/02/20 07:11:59;;;;;;;1999.90;999.90;;;;;;;1.87;100.00;162895.81;5021883;28;20073;-67
2022/02/20 07:14:26;;;;;;;1999.90;999.90;;;;;;;2.05;100.00;162945.06;5013392;28;20077;-67
2022/02/20 07:16:52;;;;;;;1999.90;999.90;;;;;;;1.67;100.00;162843.78;5018645;28;20046;-67
2022/02/20 07:19:19;;;;;;;1999.90;999.90;;;;;;;1.90;100.00;162904.00;5012809;28;20093;-67
2022/02/20 07:21:45;;;;;;;1999.90;999.90;;;;;;;1.85;100.00;162890.34;5011385;28;20347;-68
2022/02/20 07:24:13;;;;;;;1999.90;999.90;;;;;;;1.96;100.00;162920.44;5016155;28;20053;-68
2022/02/20 07:26:40;;;;;;;1999.90;999.90;;;;;;;1.95;100.00;162917.72;5017041;28;21674;-68
2022/02/20 07:29:06;;;;;;;1999.90;999.90;;;;;;;2.08;100.00;162951.94;5015355;28;20547;-68
2022/02/20 07:31:33;;;;;;;1999.90;999.90;;;;;;;1.97;100.00;162923.19;5017640;28;20045;-68
2022/02/20 07:33:59;;;;;;;1999.90;999.90;;;;;;;2.14;100.00;162967.00;5022991;28;20081;-68
2022/02/20 07:36:26;;;;;;;1999.90;999.90;;;;;;;1.95;100.00;162917.72;5018811;28;20077;-69
2022/02/20 07:38:52;;;;;;;1999.90;999.90;;;;;;;2.24;100.00;162994.38;5019514;28;20114;-69
2022/02/20 07:41:19;;;;;;;1999.90;999.90;;;;;;;2.10;100.00;162958.78;5016158;28;20777;-69
2022/02/20 07:43:48;;;;;;;1999.90;999.90;;;;;;;2.28;100.00;163005.34;5015319;28;20115;-69
2022/02/20 07:46:17;;;;;;;1999.90;999.90;;;;;;;2.10;100.00;162958.78;5017260;28;20050;-69
2022/02/20 07:48:45;;;;;;;1999.90;999.90;;;;;;;2.21;100.00;162987.53;5020086;28;20111;-69
2022/02/20 07:51:13;;;;;;;1999.90;999.90;;;;;;;2.35;100.00;163023.13;5012481;28;20047;-69
2022/02/20 07:53:41;;;;;;;1999.90;999.90;;;;;;;2.40;100.00;163036.84;5012494;28;20072;-69
2022/02/20 07:56:08;;;;;;;1999.90;999.90;;;;;;;2.36;100.00;163027.25;5015977;28;20084;-68
2022/02/20 07:58:37;;;;;;;1999.90;999.90;;;;;;;2.73;100.00;163125.88;5023686;28;20089;-69
2022/02/20 08:01:05;;;;;;;1999.90;999.90;;;;;;;2.73;100.00;163124.50;5020549;28;20085;-69
2022/02/20 08:03:31;;;;;;;1999.90;999.90;;;;;;;2.77;100.00;163135.44;5014651;28;20068;-69
2022/02/20 08:06:01;;;;;;;1999.90;999.90;;;;;;;2.84;100.00;163153.28;5022589;28;20084;-69
2022/02/20 08:08:28;;;;;;;1999.90;999.90;;;;;;;2.55;100.00;163076.56;5017641;28;20132;-69
2022/02/20 08:10:58;;;;;;;1999.90;999.90;;;;;;;2.84;100.00;163153.28;5022175;28;20053;-69
2022/02/20 08:13:24;;;;;;;1999.90;999.90;;;;;;;2.76;100.00;163134.09;5022390;28;20155;-69
2022/02/20 08:15:51;;;;;;;1999.90;999.90;;;;;;;3.11;100.00;163225.88;5026967;28;20124;-69
2022/02/20 08:18:19;;;;;;;1999.90;999.90;;;;;;;3.02;100.00;163201.22;5011078;28;20054;-69
2022/02/20 08:20:46;;;;;;;1999.90;999.90;;;;;;;3.03;100.00;163205.31;5018070;28;20072;-69
2022/02/20 08:23:32;;;;;;;1999.90;999.90;;;;;;;2.92;100.00;163175.22;5014369;28;20049;-69
2022/02/20 08:25:59;;;;;;;1999.90;999.90;;;;;;;3.04;100.00;163206.69;5017653;28;20451;-69
2022/02/20 08:28:25;;;;;;;1999.90;999.90;;;;;;;3.06;100.00;163213.53;5014470;28;20410;-69
2022/02/20 08:30:52;;;;;;;1999.90;999.90;;;;;;;3.17;100.00;163242.31;5015497;28;20430;-69
2022/02/20 08:33:18;;;;;;;1999.90;999.90;;;;;;;3.08;100.00;163217.66;5014122;28;20045;-69
2022/02/20 08:36:05;;;;;;;1999.90;999.90;;;;;;;3.22;100.00;163254.69;5008024;28;20071;-69
2022/02/20 08:38:32;;;;;;;1999.90;999.90;;;;;;;3.29;100.00;163275.22;5009687;28;20078;-69
2022/02/20 08:40:58;;;;;;;1999.90;999.90;;;;;;;3.44;100.00;163314.97;5009920;28;20073;-69
2022/02/20 08:43:26;;;;;;;1999.90;999.90;;;;;;;3.16;100.00;163240.94;5008468;28;20049;-69
2022/02/20 08:45:52;;;;;;;1999.90;999.90;;;;;;;3.27;100.00;163268.38;5012089;28;20048;-69
2022/02/20 08:48:19;;;;;;;1999.90;999.90;;;;;;;3.62;100.00;163361.59;5020309;28;20053;-69
2022/02/20 08:50:45;;;;;;;1999.90;999.90;;;;;;;3.60;100.00;163357.41;5020402;28;20085;-69
2022/02/20 08:53:12;;;;;;;1999.90;999.90;;;;;;;3.32;100.00;163282.03;5021530;28;20410;-68
2022/02/20 08:55:38;;;;;;;1999.90;999.90;;;;;;;3.31;100.00;163279.34;5015163;28;20072;-69
2022/02/20 08:58:05;;;;;;;1999.90;999.90;;;;;;;3.40;100.00;163304.00;5021306;28;20146;-69
2022/02/20 09:00:32;;;;;;;1999.90;999.90;;;;;;;3.34;100.00;163288.91;5012754;28;20088;-69
2022/02/20 09:02:58;;;;;;;1999.90;999.90;;;;;;;3.60;100.00;163356.06;5017287;28;20125;-69
2022/02/20 09:05:25;;;;;;;1999.90;999.90;;;;;;;3.57;100.00;163349.19;5021016;28;20107;-69
2022/02/20 09:07:51;;;;;;;1999.90;999.90;;;;;;;3.65;100.00;163369.81;5018850;28;20090;-69
2022/02/20 09:10:18;;;;;;;1999.90;999.90;;;;;;;3.98;100.00;163457.53;5015485;28;20081;-69
2022/02/20 09:12:45;;;;;;;1999.90;999.90;;;;;;;3.78;100.00;163405.44;5017118;28;20112;-69
2022/02/20 09:15:12;;;;;;;1999.90;999.90;;;;;;;4.05;100.00;163476.75;5023596;28;20104;-69
2022/02/20 09:17:40;;;;;;;1999.90;999.90;;;;;;;4.02;99.66;163469.88;5014644;28;20081;-67
2022/02/20 09:20:07;;;;;;;1999.90;999.90;;;;;;;3.90;100.00;163435.56;5013581;28;20049;-68
2022/02/20 09:22:34;;;;;;;1999.90;999.90;;;;;;;4.16;99.27;163506.88;5023009;28;20523;-67
2022/02/20 09:25:01;;;;;;;1999.90;999.90;;;;;;;4.28;98.26;163537.06;5016505;28;20068;-68
2022/02/20 09:27:29;;;;;;;1999.90;999.90;;;;;;;4.52;96.73;163601.50;5025224;28;20060;-68
2022/02/20 09:29:55;;;;;;;1999.90;999.90;;;;;;;4.55;95.97;163611.09;5028668;28;20113;-67
2022/02/20 09:32:23;;;;;;;1999.90;999.90;;;;;;;4.63;96.42;163631.72;5025680;28;20054;-68
2022/02/20 09:34:49;;;;;;;1999.90;999.90;;;;;;;4.76;95.46;163665.97;5019895;28;20049;-69
2022/02/20 09:37:17;;;;;;;1999.90;999.90;;;;;;;4.86;95.26;163693.41;5012739;28;20048;-68
2022/02/20 09:39:44;;;;;;;1999.90;999.90;;;;;;;4.58;95.50;163619.38;5019888;28;20367;-68
2022/02/20 09:42:11;;;;;;;1999.90;999.90;;;;;;;4.59;95.40;163620.72;5046286;28;20131;-69
2022/02/20 09:44:37;;;;;;;1999.90;999.90;;;;;;;4.84;94.58;163687.94;5019341;28;20046;-68
2022/02/20 09:47:04;;;;;;;1999.90;999.90;;;;;;;4.94;93.51;163715.38;5021461;28;20425;-68
2022/02/20 09:49:35;;;;;;;1999.90;999.90;;;;;;;4.93;93.38;163712.63;5012678;28;20053;-69
2022/02/20 09:52:03;;;;;;;1999.90;999.90;;;;;;;4.98;92.62;163723.63;5019316;28;20316;-69
2022/02/20 09:54:30;;;;;;;1999.90;999.90;;;;;;;4.99;92.55;163727.72;5020995;28;20041;-69
2022/02/20 09:56:57;;;;;;;1999.90;999.90;;;;;;;5.11;92.47;163759.28;5015684;28;20522;-69
2022/02/20 09:59:24;;;;;;;1999.90;999.90;;;;;;;5.19;91.83;163781.22;5021804;28;20111;-69
2022/02/20 10:02:04;;;;;;;1999.90;999.90;;;;;;;5.35;91.10;163823.78;5012069;28;20506;-69
2022/02/20 10:04:53;;;;;;;1999.90;999.90;;;;;;;5.33;91.44;163816.91;5021797;28;20041;-69
2022/02/20 10:07:34;;;;;;;1999.90;999.90;;;;;;;5.56;90.21;163880.03;5018933;28;20045;-69
2022/02/20 10:10:31;;;;;;;1999.90;999.90;;;;;;;5.43;90.46;163844.34;5021318;28;20435;-66
2022/02/20 10:13:05;;;;;;;1999.90;999.90;;;;;;;5.51;90.31;163866.34;5020770;28;20050;-66
2022/02/20 10:15:39;;;;;;;1999.90;999.90;;;;;;;5.63;90.43;163899.28;5014882;28;20089;-66
2022/02/20 10:18:16;;;;;;;1999.90;999.90;;;;;;;5.53;90.62;163871.81;5012995;28;20401;-67
2022/02/20 10:20:44;;;;;;;1999.90;999.90;;;;;;;5.71;90.16;163918.50;5013493;28;20064;-67
2022/02/20 10:23:12;;;;;;;1999.90;999.90;;;;;;;5.75;89.77;163929.50;5013255;28;20076;-67
2022/02/20 10:25:47;;;;;;;1999.90;999.90;;;;;;;6.06;89.27;164011.88;5018435;28;20091;-67
2022/02/20 10:28:14;;;;;;;1999.90;999.90;;;;;;;6.27;88.33;164069.56;5016258;28;20103;-68
2022/02/20 10:30:41;;;;;;;1999.90;999.90;;;;;;;6.22;88.35;164055.81;5016393;28;20076;-68
2022/02/20 10:33:10;;;;;;;1999.90;999.90;;;;;;;6.33;87.91;164084.69;5023191;28;20087;-68
2022/02/20 10:35:42;;;;;;;1999.90;999.90;;;;;;;6.28;87.97;164070.94;5013505;28;20401;-67
2022/02/20 10:38:13;;;;;;;1999.90;999.90;;;;;;;6.40;87.64;164103.94;5018841;28;20363;-67
2022/02/20 10:40:43;;;;;;;1999.90;999.90;;;;;;;6.43;86.87;164112.16;5017795;28;20084;-67
2022/02/20 10:43:27;;;;;;;1999.90;999.90;;;;;;;6.31;87.48;164079.16;5012016;28;20103;-67
2022/02/20 10:46:17;;;;;;;1999.90;999.90;;;;;;;6.49;86.26;164127.22;5014684;28;20115;-67
2022/02/20 10:48:47;;;;;;;1999.90;999.90;;;;;;;6.89;86.23;164234.38;5018324;28;20383;-67
2022/02/20 10:51:16;;;;;;;1999.90;999.90;;;;;;;7.10;85.07;164289.34;5016383;28;21223;-68
2022/02/20 10:53:44;;;;;;;1999.90;999.90;;;;;;;7.15;83.46;164304.47;5012964;28;20053;-67